UPR Marlboro, Maryland
Current Conditions -  °F | °C
As of 11:58 PM on Friday 24 Oct 2014 (Local Time) from KADW Reporting Station
Clear Clear  
Wind Chill: 56°   Ceiling: Unl
Heat Index: 56°   Visibility: 10mi
Dew Point: 38°   Wind: 15mph
Humidity: 51%   Direction: 320°NW
Pressure: 29.95"   Gusts: NA
Location:  38.8741°N, 76.7678°W
Report Text: KADW 250358Z AUTO 32013KT 10SM CLR 14/04 A2995 RMK AO2 SLP148 T01350036 $
Loading
Personal Weather Stations






























Interactive Weather Map
Tropical Storm Tracking
New forecast layout! Learn more

10-Day Weather Forecast

Advertisements
Track Severe Weather on mobile